Sparks Glencoe, Maryland
Current Conditions -  °F | °C
As of 1:10 AM on Wednesday 22 Oct 2014 (Local Time) from KDMW Reporting Station
Thunderstorm Thunderstorm  
Wind Chill: 52°   Ceiling: 6000
Heat Index: 52°   Visibility: 10mi
Dew Point: 48°   Wind: 3mph
Humidity: 88%   Direction: 340°NNW
Pressure: 29.9"   Gusts: NA
Location:  39.54°N, 76.67°W
Report Text: KDMW 220510Z AUTO 34003KT 10SM -VCTSRA SCT035 SCT043 OVC060 11/09 A2990 RMK AO2 LTG DSNT E
Loading
Personal Weather Stations






























Interactive Weather Map
Tropical Storm Tracking
New forecast layout! Learn more

10-Day Weather Forecast

Advertisements
Track Severe Weather on mobile